createdAt,value
2023-05-14T00:00:36.746Z,80
2023-05-14T00:01:57.854Z,80
2023-05-14T00:03:18.939Z,80.5
2023-05-14T00:04:40.050Z,80.3
2023-05-14T00:06:01.164Z,80.5
2023-05-14T00:07:22.268Z,80.2
2023-05-14T00:08:43.371Z,80.2
2023-05-14T00:10:04.494Z,81
2023-05-14T00:11:25.599Z,80.3
2023-05-14T00:12:46.693Z,80.3
2023-05-14T00:14:06.819Z,80.8
2023-05-14T00:15:27.931Z,80
2023-05-14T00:16:49.033Z,80.3
2023-05-14T00:18:10.137Z,80.4
2023-05-14T00:19:31.264Z,80.7
2023-05-14T00:20:52.352Z,80.7
2023-05-14T00:22:13.479Z,81.4
2023-05-14T00:23:34.573Z,81.5
2023-05-14T00:24:55.686Z,81.5
2023-05-14T00:26:16.810Z,81.8
2023-05-14T00:27:37.896Z,82.1
2023-05-14T00:28:59.011Z,82.4
2023-05-14T00:30:20.116Z,82.5
2023-05-14T00:45:40.108Z,85.8
2023-05-14T01:01:01.064Z,87.6
2023-05-14T01:16:22.019Z,87.4
2023-05-14T01:31:42.999Z,91.7
2023-05-14T01:47:03.957Z,89.2
2023-05-14T02:02:24.922Z,91.8
2023-05-14T02:17:44.892Z,90.2
2023-05-14T02:33:05.861Z,88.2
2023-05-14T02:48:26.841Z,87.9
2023-05-14T03:03:47.753Z,91.2
2023-05-14T03:19:08.686Z,95.7
2023-05-14T03:34:29.614Z,88.8
2023-05-14T03:49:50.525Z,90.2
2023-05-14T04:05:11.439Z,90.1
2023-05-14T04:20:32.366Z,88.1
2023-05-14T04:35:53.280Z,85.5
2023-05-14T04:51:14.211Z,82.4
2023-05-14T05:06:35.128Z,81.9
2023-05-14T05:21:56.048Z,82.2
2023-05-14T05:37:15.995Z,75.6
2023-05-14T05:52:36.937Z,71.8
2023-05-14T06:07:57.000Z,56.2
2023-05-14T06:09:18.923Z,52.3
2023-05-14T06:10:40.019Z,52.3
2023-05-14T06:12:01.085Z,50.4
2023-05-14T06:13:22.169Z,49.6
2023-05-14T06:14:43.216Z,49
2023-05-14T06:16:04.329Z,47.1
2023-05-14T06:17:25.403Z,51.5
2023-05-14T06:18:46.467Z,52.2
2023-05-14T06:20:07.559Z,51.4
2023-05-14T06:21:28.628Z,50.2
2023-05-14T06:22:48.722Z,50.8
2023-05-14T06:24:09.810Z,50
2023-05-14T06:25:30.873Z,49.8
2023-05-14T06:26:51.951Z,46.6
2023-05-14T06:28:13.033Z,46
2023-05-14T06:29:34.122Z,44.8
2023-05-14T06:30:55.190Z,44.3
2023-05-14T06:32:16.257Z,45.7
2023-05-14T06:33:37.340Z,44.7
2023-05-14T06:34:58.427Z,44.8
2023-05-14T06:36:19.499Z,45.3
2023-05-14T06:37:40.567Z,45.8
2023-05-14T06:39:01.661Z,45.8
2023-05-14T06:40:21.749Z,45.1
2023-05-14T06:41:42.833Z,46.9
2023-05-14T06:43:03.903Z,44.1
2023-05-14T06:44:24.988Z,46
2023-05-14T06:45:46.072Z,46.7
2023-05-14T06:47:07.135Z,51.1
2023-05-14T06:48:28.218Z,56
2023-05-14T06:49:49.306Z,58.6
2023-05-14T06:51:10.365Z,51.7
2023-05-14T06:52:31.428Z,51.3
2023-05-14T06:53:52.520Z,51.7
2023-05-14T06:55:13.614Z,56.1
2023-05-14T06:56:34.695Z,53.3
2023-05-14T06:57:54.777Z,53
2023-05-14T06:59:15.851Z,54.7
2023-05-14T07:00:36.939Z,51.2
2023-05-14T07:01:57.985Z,51.6
2023-05-14T07:03:19.094Z,51.8
2023-05-14T07:04:40.176Z,53
2023-05-14T07:06:01.235Z,54.3
2023-05-14T07:07:22.336Z,53.3
2023-05-14T07:08:43.400Z,54.9
2023-05-14T07:10:04.498Z,50.2
2023-05-14T07:11:25.572Z,53.8
2023-05-14T07:12:46.614Z,57.1
2023-05-14T07:14:07.720Z,58.2
2023-05-14T07:15:27.803Z,59.9
2023-05-14T07:16:48.897Z,63.9
2023-05-14T07:18:09.976Z,63.6
2023-05-14T07:19:31.049Z,61.3
2023-05-14T07:20:52.096Z,57.9
2023-05-14T07:22:13.177Z,60.9
2023-05-14T07:23:34.289Z,60
2023-05-14T07:24:55.349Z,62.4
2023-05-14T07:26:16.434Z,59.2
2023-05-14T07:27:37.488Z,58.8
2023-05-14T07:28:58.582Z,59.1
2023-05-14T07:30:19.676Z,61
2023-05-14T07:31:40.742Z,62.6
2023-05-14T07:33:00.837Z,60.8
2023-05-14T07:34:21.928Z,59.1
2023-05-14T07:35:42.979Z,59.6
2023-05-14T07:37:04.071Z,55.6
2023-05-14T07:38:25.164Z,58.3
2023-05-14T07:39:46.229Z,59.1
2023-05-14T07:41:07.309Z,58.2
2023-05-14T07:42:28.369Z,57.9
2023-05-14T07:43:49.465Z,60.9
2023-05-14T07:45:10.532Z,62
2023-05-14T07:46:31.606Z,55.9
2023-05-14T07:47:52.705Z,57.8
2023-05-14T07:49:13.755Z,61.7
2023-05-14T07:50:33.875Z,60.2
2023-05-14T07:51:54.958Z,56.3
2023-05-14T07:53:16.002Z,58.2
2023-05-14T07:54:37.115Z,56.9
2023-05-14T07:55:58.176Z,54.8
2023-05-14T07:57:19.268Z,53.7
2023-05-14T07:58:40.335Z,55.9
2023-05-14T08:00:01.438Z,55
2023-05-14T08:01:22.498Z,57.1
2023-05-14T08:02:43.589Z,56
2023-05-14T08:04:04.660Z,57.9
2023-05-14T08:05:25.758Z,57.3
2023-05-14T08:06:46.833Z,55.1
2023-05-14T08:08:06.921Z,57.3
2023-05-14T08:09:27.966Z,58.2
2023-05-14T08:10:49.079Z,62.4
2023-05-14T08:12:10.150Z,58.2
2023-05-14T08:14:52.293Z,55.8
2023-05-14T08:16:13.381Z,61.2
2023-05-14T08:17:34.451Z,65.6
2023-05-14T08:18:55.541Z,63.9
2023-05-14T08:20:16.617Z,64.7
2023-05-14T08:21:37.691Z,60
2023-05-14T08:22:58.768Z,58.2
2023-05-14T08:24:19.816Z,60.3
2023-05-14T08:25:41.038Z,60.9
2023-05-14T08:27:02.098Z,60.6
2023-05-14T08:28:23.208Z,57.8
2023-05-14T08:29:44.285Z,59.7
2023-05-14T08:31:05.363Z,59.4
2023-05-14T08:32:26.424Z,59.4
2023-05-14T08:33:47.513Z,59.4
2023-05-14T08:35:08.557Z,58.2
2023-05-14T08:36:29.668Z,59.1
2023-05-14T08:37:50.746Z,59.1
2023-05-14T08:39:11.814Z,57.5
2023-05-14T08:40:32.899Z,57.1
2023-05-14T08:41:53.955Z,59.2
2023-05-14T08:43:15.191Z,56.9
2023-05-14T08:44:36.246Z,59.3
2023-05-14T08:45:57.349Z,62.3
2023-05-14T08:47:18.422Z,59
2023-05-14T08:48:39.480Z,56.8
2023-05-14T08:50:00.547Z,57.2
2023-05-14T08:51:21.659Z,61.2
2023-05-14T08:52:42.722Z,58.1
2023-05-14T08:54:03.794Z,58.2
2023-05-14T08:55:24.881Z,57.9
2023-05-14T08:56:45.954Z,58.7
2023-05-14T08:58:07.036Z,59.9
2023-05-14T08:59:28.093Z,58.6
2023-05-14T09:00:48.212Z,56.7
2023-05-14T09:02:09.279Z,58.4
2023-05-14T09:03:30.370Z,55.7
2023-05-14T09:04:51.424Z,56.2
2023-05-14T09:06:12.518Z,61.8
2023-05-14T09:07:33.596Z,57.6
2023-05-14T09:08:54.664Z,64.1
2023-05-14T09:10:15.742Z,61.9
2023-05-14T09:11:36.832Z,63.5
2023-05-14T09:12:57.899Z,64.6
2023-05-14T09:14:18.983Z,57.8
2023-05-14T09:15:40.038Z,59
2023-05-14T09:17:01.107Z,57.9
2023-05-14T09:18:22.323Z,60.6
2023-05-14T09:19:43.407Z,60.8
2023-05-14T09:21:04.495Z,57.9
2023-05-14T09:22:25.570Z,56
2023-05-14T09:23:46.635Z,55.2
2023-05-14T09:25:07.707Z,59
2023-05-14T09:26:28.794Z,57.5
2023-05-14T09:27:49.880Z,57.1
2023-05-14T09:29:10.931Z,59.4
2023-05-14T09:30:32.017Z,56.5
2023-05-14T09:31:53.109Z,58.7
2023-05-14T09:33:14.168Z,58.2
2023-05-14T09:34:35.244Z,58
2023-05-14T09:35:55.338Z,60.6
2023-05-14T09:37:16.392Z,61
2023-05-14T09:38:37.460Z,63.8
2023-05-14T09:39:58.544Z,61.8
2023-05-14T09:41:19.612Z,60.3
2023-05-14T09:42:40.693Z,63.5
2023-05-14T09:44:01.756Z,65.1
2023-05-14T09:45:22.786Z,60.3
2023-05-14T09:46:43.885Z,61.6
2023-05-14T09:48:04.957Z,62.1
2023-05-14T09:50:47.077Z,63.3
2023-05-14T09:52:08.158Z,64.8
2023-05-14T09:53:28.209Z,63.5
2023-05-14T09:54:49.265Z,64.6
2023-05-14T09:56:10.362Z,64.4
2023-05-14T09:57:31.433Z,63.2
2023-05-14T09:58:52.503Z,64.5
2023-05-14T10:00:13.580Z,63.1
2023-05-14T10:01:34.615Z,64.3
2023-05-14T10:02:55.715Z,66
2023-05-14T10:04:16.745Z,63.8
2023-05-14T10:05:37.807Z,63.3
2023-05-14T10:06:58.872Z,62.6
2023-05-14T10:08:19.978Z,61.1
2023-05-14T10:09:41.014Z,62.4
2023-05-14T10:11:01.131Z,62
2023-05-14T10:12:22.159Z,62.2
2023-05-14T10:13:43.236Z,63.6
2023-05-14T10:15:04.296Z,62.1
2023-05-14T10:16:25.365Z,61.7
2023-05-14T10:17:46.462Z,63.6
2023-05-14T10:19:06.527Z,65.5
2023-05-14T10:20:27.622Z,61.6
2023-05-14T10:21:48.703Z,63.3
2023-05-14T10:23:09.738Z,61.5
2023-05-14T10:24:30.840Z,61.6
2023-05-14T10:25:51.916Z,62.8
2023-05-14T10:27:12.972Z,60.7
2023-05-14T10:28:34.049Z,63.5
2023-05-14T10:29:55.116Z,60.4
2023-05-14T10:31:16.184Z,63
2023-05-14T10:32:37.259Z,65.8
2023-05-14T10:33:58.345Z,62.8
2023-05-14T10:35:19.416Z,60.2
2023-05-14T10:36:39.477Z,62.6
2023-05-14T10:38:00.556Z,59.7
2023-05-14T10:39:21.672Z,61.5
2023-05-14T10:40:42.734Z,60.4
2023-05-14T10:42:03.799Z,58.7
2023-05-14T10:43:24.895Z,59.4
2023-05-14T10:44:45.980Z,58.3
2023-05-14T10:46:07.049Z,58.3
2023-05-14T10:47:28.120Z,56.5
2023-05-14T10:48:49.216Z,58.9
2023-05-14T10:50:10.254Z,57.8
2023-05-14T10:51:31.357Z,55.7
2023-05-14T10:52:52.414Z,59.3
2023-05-14T10:54:12.513Z,61.6
2023-05-14T10:55:33.578Z,60.1
2023-05-14T10:56:54.652Z,61.8
2023-05-14T10:58:15.707Z,59
2023-05-14T10:59:36.816Z,61.3
2023-05-14T11:00:57.873Z,62.1
2023-05-14T11:02:18.933Z,60.8
2023-05-14T11:03:40.012Z,63.5
2023-05-14T11:05:01.065Z,64.8
2023-05-14T11:06:22.148Z,61.4
2023-05-14T11:07:43.226Z,64.7
2023-05-14T11:09:04.296Z,63
2023-05-14T11:10:25.369Z,61.8
2023-05-14T11:11:45.455Z,64.3
2023-05-14T11:13:06.534Z,63.3
2023-05-14T11:14:27.572Z,62.1
2023-05-14T11:15:48.672Z,60.1
2023-05-14T11:17:09.740Z,59.9
2023-05-14T11:18:30.801Z,61.8
2023-05-14T11:19:51.877Z,63.3
2023-05-14T11:21:12.947Z,62.8
2023-05-14T11:22:34.008Z,65.1
2023-05-14T11:23:55.078Z,66.2
2023-05-14T11:25:16.147Z,68
2023-05-14T11:26:37.221Z,67.5
2023-05-14T11:27:58.274Z,66.7
2023-05-14T11:29:18.366Z,69
2023-05-14T11:30:39.431Z,69.5
2023-05-14T11:32:00.509Z,68.4
2023-05-14T11:33:21.568Z,70.1
2023-05-14T11:34:42.637Z,69.6
2023-05-14T11:36:03.678Z,69.8
2023-05-14T11:37:24.778Z,68.9
2023-05-14T11:38:45.845Z,68.7
2023-05-14T11:40:06.904Z,69
2023-05-14T11:41:27.962Z,71
2023-05-14T11:42:49.037Z,69.4
2023-05-14T11:44:10.098Z,69.1
2023-05-14T11:45:31.175Z,69.8
2023-05-14T11:46:51.258Z,69.5
2023-05-14T11:48:12.327Z,70.1
2023-05-14T11:49:33.346Z,69.2
2023-05-14T11:50:54.442Z,67.8
2023-05-14T11:52:15.516Z,68.3
2023-05-14T11:53:36.574Z,66.9
2023-05-14T11:54:57.642Z,63.5
2023-05-14T11:56:18.716Z,63.5
2023-05-14T11:57:39.746Z,62.1
2023-05-14T11:59:00.838Z,63.8
2023-05-14T12:00:21.882Z,63.5
2023-05-14T12:01:42.984Z,63.3
2023-05-14T12:03:04.012Z,61.8
2023-05-14T12:04:24.122Z,62.6
2023-05-14T12:05:45.163Z,64.4
2023-05-14T12:07:06.269Z,62.7
2023-05-14T12:08:27.337Z,61.9
2023-05-14T12:09:48.399Z,61.9
2023-05-14T12:11:09.456Z,64.2
2023-05-14T12:12:30.496Z,62.7
2023-05-14T12:13:51.601Z,62.7
2023-05-14T12:15:12.661Z,62
2023-05-14T12:16:33.732Z,62.2
2023-05-14T12:17:54.760Z,62.7
2023-05-14T12:19:15.822Z,63.4
2023-05-14T12:20:36.933Z,63.2
2023-05-14T12:21:57.008Z,61.2
2023-05-14T12:23:18.084Z,65
2023-05-14T12:24:39.146Z,61.9
2023-05-14T12:26:00.207Z,65.2
2023-05-14T12:27:21.258Z,62.5
2023-05-14T12:28:42.340Z,62.7
2023-05-14T12:30:03.372Z,62.7
2023-05-14T12:31:24.474Z,63.4
2023-05-14T12:32:45.505Z,64.7
2023-05-14T12:34:06.612Z,62.8
2023-05-14T12:35:27.650Z,63.1
2023-05-14T12:36:48.748Z,61.4
2023-05-14T12:38:09.791Z,64.5
2023-05-14T12:39:29.918Z,64.2
2023-05-14T12:40:50.943Z,61.7
2023-05-14T12:42:12.062Z,60.8
2023-05-14T12:43:33.101Z,62
2023-05-14T12:44:54.190Z,67.9
2023-05-14T12:46:15.219Z,58.6
2023-05-14T12:47:36.315Z,59.5
2023-05-14T12:48:57.390Z,59.7
2023-05-14T12:50:18.485Z,58.1
2023-05-14T12:51:39.546Z,60
2023-05-14T12:53:00.617Z,56.7
2023-05-14T12:54:21.667Z,56.1
2023-05-14T12:55:42.746Z,57.7
2023-05-14T12:57:02.834Z,56.3
2023-05-14T12:58:23.955Z,55.4
2023-05-14T12:59:44.989Z,56.3
2023-05-14T13:01:06.097Z,57.9
2023-05-14T13:02:27.178Z,57
2023-05-14T13:03:48.256Z,55.1
2023-05-14T13:05:09.297Z,56.3
2023-05-14T13:06:30.417Z,56.6
2023-05-14T13:07:51.468Z,56.2
2023-05-14T13:09:12.570Z,56.7
2023-05-14T13:10:33.638Z,59.3
2023-05-14T13:11:54.705Z,58.6
2023-05-14T13:13:15.775Z,62.6
2023-05-14T13:14:35.872Z,60.3
2023-05-14T13:15:56.897Z,59.7
2023-05-14T13:17:18.007Z,62.5
2023-05-14T13:18:39.035Z,59.6
2023-05-14T13:20:00.147Z,61.4
2023-05-14T13:21:21.229Z,58.9
2023-05-14T13:22:42.320Z,58.5
2023-05-14T13:24:03.348Z,61.6
2023-05-14T13:25:24.413Z,59.1
2023-05-14T13:26:45.496Z,58.8
2023-05-14T13:28:06.612Z,60.3
2023-05-14T13:29:27.627Z,58.7
2023-05-14T13:30:48.706Z,61.3
2023-05-14T13:32:08.839Z,60.8
2023-05-14T13:33:29.864Z,58.7
2023-05-14T13:34:50.943Z,62.2
2023-05-14T13:36:12.064Z,60
2023-05-14T13:37:33.096Z,58.3
2023-05-14T13:38:54.213Z,57.4
2023-05-14T13:40:15.256Z,62.1
2023-05-14T13:41:36.332Z,62.8
2023-05-14T13:42:57.435Z,60.1
2023-05-14T13:44:18.551Z,58
2023-05-14T13:45:39.627Z,60.8
2023-05-14T13:47:00.697Z,61.2
2023-05-14T13:48:21.743Z,55.7
2023-05-14T13:49:41.871Z,58.8
2023-05-14T13:51:02.908Z,63.1
2023-05-14T13:52:24.022Z,60.4
2023-05-14T13:53:45.066Z,56.7
2023-05-14T13:55:06.173Z,58.7
2023-05-14T13:56:27.212Z,60.9
2023-05-14T13:57:48.299Z,58.4
2023-05-14T13:59:09.405Z,59.5
2023-05-14T14:00:30.497Z,55.3
2023-05-14T14:01:51.533Z,57.1
2023-05-14T14:03:12.655Z,57.3
2023-05-14T14:04:33.722Z,57.9
2023-05-14T14:05:54.759Z,58.9
2023-05-14T14:07:15.966Z,57.6
2023-05-14T14:08:37.076Z,55.7
2023-05-14T14:09:58.161Z,56.8
2023-05-14T14:11:19.232Z,53.3
2023-05-14T14:12:40.297Z,55
2023-05-14T14:14:01.337Z,56.3
2023-05-14T14:15:22.462Z,60.5
2023-05-14T14:16:43.530Z,56.9
2023-05-14T14:18:04.613Z,57.9
2023-05-14T14:19:25.705Z,56.2
2023-05-14T14:20:46.779Z,56.4
2023-05-14T14:22:07.855Z,55.2
2023-05-14T14:23:28.933Z,56.9
2023-05-14T14:24:49.023Z,50.8
2023-05-14T14:26:10.117Z,54.4
2023-05-14T14:27:31.188Z,54.7
2023-05-14T14:28:52.223Z,56.4
2023-05-14T14:30:13.315Z,55.6
2023-05-14T14:31:34.417Z,56
2023-05-14T14:32:55.489Z,53.3
2023-05-14T14:34:16.581Z,51.1
2023-05-14T14:35:37.648Z,53.3
2023-05-14T14:36:58.735Z,51.9
2023-05-14T14:38:19.772Z,55.3
2023-05-14T14:39:40.879Z,55.2
2023-05-14T14:41:01.952Z,56.1
2023-05-14T14:42:22.068Z,56.4
2023-05-14T14:43:43.131Z,58.2
2023-05-14T14:45:04.216Z,58.6
2023-05-14T14:46:25.235Z,59.2
2023-05-14T14:47:46.343Z,59.9
2023-05-14T14:49:07.384Z,61.7
2023-05-14T14:50:27.513Z,58.3
2023-05-14T14:51:48.606Z,58.2
2023-05-14T14:53:09.619Z,59.2
2023-05-14T14:54:30.699Z,61
2023-05-14T14:55:51.817Z,59.1
2023-05-14T14:57:12.852Z,61.7
2023-05-14T14:58:33.933Z,55.9
2023-05-14T14:59:55.040Z,56.1
2023-05-14T15:01:16.130Z,53.1
2023-05-14T15:02:37.196Z,51.6
2023-05-14T15:03:58.287Z,50.6
2023-05-14T15:05:19.324Z,55.3
2023-05-14T15:06:40.439Z,53.4
2023-05-14T15:08:00.531Z,52.5
2023-05-14T15:09:21.607Z,57.2
2023-05-14T15:10:42.633Z,57.4
2023-05-14T15:12:03.716Z,56.5
2023-05-14T15:13:24.828Z,55.9
2023-05-14T15:14:45.897Z,58.6
2023-05-14T15:16:06.961Z,57.3
2023-05-14T15:17:28.003Z,54.2
2023-05-14T15:18:49.074Z,53.6
2023-05-14T15:20:10.199Z,59.4
2023-05-14T15:21:31.236Z,55.7
2023-05-14T15:22:52.356Z,54.5
2023-05-14T15:24:13.447Z,53.1
2023-05-14T15:25:33.526Z,53.3
2023-05-14T15:26:54.606Z,52.1
2023-05-14T15:28:15.691Z,50.4
2023-05-14T15:29:36.721Z,49
2023-05-14T15:30:57.835Z,52.9
2023-05-14T15:32:18.930Z,52
2023-05-14T15:33:39.960Z,52.2
2023-05-14T15:35:01.068Z,54.6
2023-05-14T15:36:22.144Z,57.9
2023-05-14T15:37:43.232Z,53.8
2023-05-14T15:39:04.309Z,54.1
2023-05-14T15:40:25.386Z,51.7
2023-05-14T15:41:46.451Z,51.3
2023-05-14T15:43:06.553Z,46.3
2023-05-14T15:44:27.630Z,49.9
2023-05-14T15:45:48.705Z,53.3
2023-05-14T15:47:09.777Z,50.6
2023-05-14T15:48:30.862Z,50.8
2023-05-14T15:49:51.900Z,48.9
2023-05-14T15:51:13.010Z,51.3
2023-05-14T15:52:34.096Z,52.6
2023-05-14T15:53:55.160Z,51.3
2023-05-14T15:55:16.257Z,52
2023-05-14T15:56:37.323Z,51.5
2023-05-14T15:57:58.402Z,52.2
2023-05-14T15:59:19.467Z,54.2
2023-05-14T16:00:39.566Z,56.6
2023-05-14T16:02:00.585Z,56.4
2023-05-14T16:03:21.695Z,55.7
2023-05-14T16:04:42.721Z,55
2023-05-14T16:06:03.797Z,54.7
2023-05-14T16:07:24.924Z,56.4
2023-05-14T16:08:45.982Z,57.8
2023-05-14T16:10:07.054Z,56.4
2023-05-14T16:11:28.132Z,55.5
2023-05-14T16:12:49.199Z,54.8
2023-05-14T16:14:10.271Z,57.6
2023-05-14T16:15:31.335Z,55.6
2023-05-14T16:16:52.354Z,55
2023-05-14T16:18:12.482Z,55.9
2023-05-14T16:19:33.551Z,56.4
2023-05-14T16:20:54.630Z,56
2023-05-14T16:22:15.647Z,55.9
2023-05-14T16:23:36.751Z,55.7
2023-05-14T16:24:57.814Z,55.5
2023-05-14T16:26:18.891Z,54.6
2023-05-14T16:27:39.912Z,54.3
2023-05-14T16:29:01.026Z,54.3
2023-05-14T16:30:22.096Z,53.2
2023-05-14T16:31:43.118Z,54.7
2023-05-14T16:33:04.228Z,54.6
2023-05-14T16:34:25.312Z,53.4
2023-05-14T16:35:45.392Z,53.5
2023-05-14T16:37:06.452Z,54.6
2023-05-14T16:38:27.522Z,52.9
2023-05-14T16:39:48.598Z,52.2
2023-05-14T16:41:09.613Z,54
2023-05-14T16:42:30.737Z,53.9
2023-05-14T16:43:51.794Z,54.6
2023-05-14T16:45:12.858Z,54.1
2023-05-14T16:46:33.951Z,55.4
2023-05-14T16:47:54.973Z,55
2023-05-14T16:49:16.038Z,55.4
2023-05-14T16:50:37.138Z,53.1
2023-05-14T16:51:58.219Z,53.3
2023-05-14T16:53:18.301Z,53.5
2023-05-14T16:54:39.320Z,53.5
2023-05-14T16:56:00.386Z,54
2023-05-14T16:57:21.461Z,54.5
2023-05-14T16:58:42.572Z,54.8
2023-05-14T17:00:03.638Z,54.1
2023-05-14T17:01:24.651Z,53.9
2023-05-14T17:02:45.771Z,54.1
2023-05-14T17:04:06.844Z,55.7
2023-05-14T17:05:27.913Z,56
2023-05-14T17:06:48.936Z,58.3
2023-05-14T17:08:10.001Z,58.4
2023-05-14T17:09:31.116Z,57.8
2023-05-14T17:10:51.200Z,57.6
2023-05-14T17:12:12.256Z,55.9
2023-05-14T17:13:33.324Z,56.3
2023-05-14T17:14:54.404Z,57.1
2023-05-14T17:16:15.413Z,59.1
2023-05-14T17:17:36.531Z,62.4
2023-05-14T17:18:57.591Z,63.7
2023-05-14T17:20:18.629Z,65.2
2023-05-14T17:21:39.732Z,64.3
2023-05-14T17:23:00.794Z,65
2023-05-14T17:24:21.858Z,65
2023-05-14T17:25:42.924Z,65.7
2023-05-14T17:27:04.000Z,65.3
2023-05-14T17:28:24.086Z,67.2
2023-05-14T17:29:45.093Z,67.3
2023-05-14T17:31:06.219Z,66.9
2023-05-14T17:32:27.274Z,65.5
2023-05-14T17:33:48.353Z,65.4
2023-05-14T17:35:09.415Z,64.6
2023-05-14T17:36:30.476Z,64.1
2023-05-14T17:37:51.557Z,64
2023-05-14T17:39:12.613Z,63.8
2023-05-14T17:40:33.681Z,64.2
2023-05-14T17:41:54.756Z,63.7
2023-05-14T17:43:15.815Z,64.7
2023-05-14T17:44:36.882Z,63.8
2023-05-14T17:45:56.957Z,66.3
2023-05-14T17:47:18.027Z,66.2
2023-05-14T17:48:39.106Z,63.8
2023-05-14T17:50:00.154Z,63
2023-05-14T17:51:21.183Z,64.5
2023-05-14T17:52:42.297Z,65.1
2023-05-14T17:54:03.368Z,63
2023-05-14T17:56:45.485Z,66.4
2023-05-14T17:58:06.511Z,65.6
2023-05-14T17:59:27.584Z,66.4
2023-05-14T18:00:48.700Z,68
2023-05-14T18:02:09.762Z,67.5
2023-05-14T18:03:29.835Z,66.8
2023-05-14T18:04:50.862Z,68.2
2023-05-14T18:06:11.971Z,69.8
2023-05-14T18:07:33.043Z,72.4
2023-05-14T18:08:54.058Z,70.1
2023-05-14T18:10:15.183Z,69.6
2023-05-14T18:11:36.250Z,70.6
2023-05-14T18:12:57.278Z,71
2023-05-14T18:14:18.381Z,71.8
2023-05-14T18:15:39.447Z,72.7
2023-05-14T18:17:00.473Z,71.3
2023-05-14T18:18:21.567Z,70.9
2023-05-14T18:19:42.638Z,71.5
2023-05-14T18:21:02.711Z,71.5
2023-05-14T18:22:23.741Z,71.8
2023-05-14T18:23:44.855Z,73.7
2023-05-14T18:25:05.916Z,74.3
2023-05-14T18:26:26.990Z,74.7
2023-05-14T18:27:48.054Z,76.2
2023-05-14T18:29:09.126Z,77.7
2023-05-14T18:30:30.193Z,77.8
2023-05-14T18:31:51.252Z,77.8
2023-05-14T18:33:12.315Z,77.9
2023-05-14T18:34:33.382Z,78.6
2023-05-14T18:37:15.514Z,76
2023-05-14T18:38:35.600Z,75.3
2023-05-14T18:39:56.664Z,75.8
2023-05-14T18:41:17.740Z,75.7
2023-05-14T18:42:38.800Z,75.4
2023-05-14T18:43:59.872Z,76.6
2023-05-14T18:45:20.933Z,77.2
2023-05-14T18:46:42.002Z,76.9
2023-05-14T18:48:03.067Z,78
2023-05-14T18:49:24.137Z,79.8
2023-05-14T18:50:45.211Z,80.3
2023-05-14T18:52:06.284Z,80.3
2023-05-14T18:53:27.303Z,80.6
2023-05-14T18:54:48.414Z,80.9
2023-05-14T18:56:08.485Z,80.7
2023-05-14T18:57:29.551Z,80.8
2023-05-14T18:58:50.627Z,81.6
2023-05-14T19:00:11.697Z,85.3
2023-05-14T19:01:32.745Z,86.6
2023-05-14T19:02:53.823Z,86.1
2023-05-14T19:04:14.891Z,86.1
2023-05-14T19:05:35.960Z,85.7
2023-05-14T19:06:57.010Z,85.2
2023-05-14T19:08:18.080Z,85.3
2023-05-14T19:09:39.160Z,87.3
2023-05-14T19:11:00.209Z,88.9
2023-05-14T19:12:21.288Z,89
2023-05-14T19:13:41.362Z,89.2
2023-05-14T19:15:02.422Z,89.7
2023-05-14T19:16:23.511Z,90.1
2023-05-14T19:17:44.561Z,91
2023-05-14T19:19:05.642Z,91.8
2023-05-14T19:20:26.752Z,92.2
2023-05-14T19:21:46.830Z,92.6
2023-05-14T19:23:07.894Z,93.2
2023-05-14T19:24:28.955Z,93.4
2023-05-14T19:25:50.023Z,94
2023-05-14T19:27:11.142Z,94.8
2023-05-14T19:28:32.257Z,94.9
2023-05-14T19:29:53.366Z,95.2
2023-05-14T19:31:14.462Z,95.7
2023-05-14T19:32:35.581Z,95.8
2023-05-14T19:33:56.693Z,95.8
2023-05-14T19:35:17.795Z,95.7
2023-05-14T19:36:38.898Z,96
2023-05-14T19:38:00.008Z,96
2023-05-14T19:39:20.145Z,96.2
2023-05-14T19:40:41.252Z,96.4
2023-05-14T19:42:02.345Z,96.9
2023-05-14T19:43:23.469Z,97.3
2023-05-14T19:44:44.580Z,97.7
2023-05-14T19:46:05.686Z,97.9
2023-05-14T19:47:26.789Z,97.9
2023-05-14T19:48:47.900Z,98
2023-05-14T19:50:09.000Z,98.2
2023-05-14T19:51:30.122Z,98.2
2023-05-14T19:52:51.224Z,98.5
2023-05-14T19:54:12.347Z,98.7
2023-05-14T19:55:33.450Z,99
2023-05-14T19:56:53.565Z,99.1
2023-05-14T19:58:14.676Z,99.2
2023-05-14T19:59:35.799Z,99.8
2023-05-14T20:00:56.913Z,100
2023-05-14T20:02:18.012Z,100
2023-05-14T20:03:39.109Z,100
2023-05-14T20:05:00.233Z,100
2023-05-14T20:06:21.336Z,100
2023-05-14T20:07:42.449Z,100
2023-05-14T20:09:03.569Z,100
2023-05-14T20:10:24.672Z,100
2023-05-14T20:11:45.780Z,100
2023-05-14T20:13:06.883Z,100
2023-05-14T20:14:27.017Z,100
2023-05-14T20:15:48.082Z,100
2023-05-14T20:17:09.228Z,100
2023-05-14T20:18:30.341Z,100
2023-05-14T20:19:51.458Z,100
2023-05-14T20:21:12.559Z,100
2023-05-14T20:22:33.669Z,100
2023-05-14T20:23:54.785Z,100
2023-05-14T20:25:15.897Z,100
2023-05-14T20:26:36.998Z,100
2023-05-14T20:27:58.121Z,100
2023-05-14T20:29:19.227Z,100
2023-05-14T20:30:40.332Z,100
2023-05-14T20:32:00.444Z,100
2023-05-14T20:33:21.559Z,100
2023-05-14T20:34:42.671Z,100
2023-05-14T20:36:03.727Z,100
2023-05-14T20:37:24.891Z,100
2023-05-14T20:38:46.000Z,100
2023-05-14T20:40:07.100Z,100
2023-05-14T20:41:28.174Z,100
2023-05-14T20:42:49.284Z,100
2023-05-14T20:44:10.388Z,100
2023-05-14T20:45:31.500Z,100
2023-05-14T20:46:52.607Z,100
2023-05-14T20:48:13.721Z,100
2023-05-14T20:49:34.966Z,100
2023-05-14T20:50:56.065Z,100
2023-05-14T20:52:17.185Z,100
2023-05-14T20:53:38.283Z,100
2023-05-14T20:54:59.394Z,100
2023-05-14T20:56:20.501Z,100
2023-05-14T20:57:41.613Z,100
2023-05-14T20:59:02.722Z,100
2023-05-14T21:00:23.845Z,100
2023-05-14T21:01:44.936Z,100
2023-05-14T21:03:06.041Z,100
2023-05-14T21:04:27.148Z,100
2023-05-14T21:05:48.272Z,100
2023-05-14T21:07:08.393Z,100
2023-05-14T21:08:29.510Z,100
2023-05-14T21:09:50.617Z,100
2023-05-14T21:11:11.717Z,100
2023-05-14T21:12:32.819Z,100
2023-05-14T21:13:53.943Z,100
2023-05-14T21:15:15.041Z,100
2023-05-14T21:16:36.146Z,100
2023-05-14T21:17:57.257Z,100
2023-05-14T21:19:18.367Z,100
2023-05-14T21:20:39.482Z,100
2023-05-14T21:22:00.602Z,100
2023-05-14T21:23:21.702Z,100
2023-05-14T21:24:41.832Z,100
2023-05-14T21:26:02.939Z,100
2023-05-14T21:27:24.041Z,100
2023-05-14T21:28:45.151Z,100
2023-05-14T21:30:06.280Z,100
2023-05-14T21:31:27.386Z,100
2023-05-14T21:32:48.474Z,100
2023-05-14T21:34:09.600Z,100
2023-05-14T21:35:30.705Z,100
2023-05-14T21:36:51.809Z,100
2023-05-14T21:38:12.930Z,100
2023-05-14T21:39:34.028Z,100
2023-05-14T21:40:55.137Z,100
2023-05-14T21:42:15.267Z,100
2023-05-14T21:43:36.379Z,100
2023-05-14T21:44:57.475Z,100
2023-05-14T21:46:18.585Z,100
2023-05-14T21:47:39.705Z,100
2023-05-14T21:49:00.811Z,100
2023-05-14T21:50:21.912Z,100
2023-05-14T21:51:43.015Z,100
2023-05-14T21:53:04.126Z,100
2023-05-14T21:54:25.236Z,100
2023-05-14T21:55:46.335Z,100
2023-05-14T21:57:07.460Z,100
2023-05-14T21:58:28.562Z,100
2023-05-14T21:59:48.679Z,100
2023-05-14T22:01:09.800Z,100
2023-05-14T22:02:30.889Z,100
2023-05-14T22:03:52.011Z,100
2023-05-14T22:05:13.125Z,99.3
2023-05-14T22:07:55.341Z,98.6
2023-05-14T22:09:16.447Z,98.6
2023-05-14T22:10:37.545Z,98.6
2023-05-14T22:11:58.660Z,98.7
2023-05-14T22:13:19.774Z,98.8
2023-05-14T22:14:40.891Z,98.8
2023-05-14T22:16:01.994Z,98.8
2023-05-14T22:17:22.129Z,99
2023-05-14T22:18:43.218Z,99.3
2023-05-14T22:20:04.343Z,99.7
2023-05-14T22:21:25.439Z,100
2023-05-14T22:22:46.554Z,100
2023-05-14T22:24:07.656Z,100
2023-05-14T22:25:28.764Z,100
2023-05-14T22:26:49.870Z,100
2023-05-14T22:28:10.974Z,100
2023-05-14T22:29:32.089Z,100
2023-05-14T22:30:53.202Z,100
2023-05-14T22:32:14.304Z,100
2023-05-14T22:33:35.430Z,100
2023-05-14T22:34:55.546Z,100
2023-05-14T22:36:16.642Z,100
2023-05-14T22:37:37.758Z,100
2023-05-14T22:38:58.861Z,100
2023-05-14T22:40:19.969Z,100
2023-05-14T22:41:41.076Z,100
2023-05-14T22:43:02.183Z,100
2023-05-14T22:44:23.290Z,100
2023-05-14T22:45:44.408Z,100
2023-05-14T22:47:05.507Z,100
2023-05-14T22:48:26.618Z,100
2023-05-14T22:49:47.727Z,100
2023-05-14T22:51:08.848Z,100
2023-05-14T22:52:28.962Z,100
2023-05-14T22:53:50.085Z,100
2023-05-14T22:55:11.175Z,100
2023-05-14T22:56:32.302Z,100
2023-05-14T22:57:53.403Z,100
2023-05-14T22:59:14.502Z,100
2023-05-14T23:00:35.618Z,100
2023-05-14T23:01:56.728Z,100
2023-05-14T23:03:17.840Z,100
2023-05-14T23:04:38.942Z,100
2023-05-14T23:06:00.048Z,100
2023-05-14T23:07:21.165Z,100
2023-05-14T23:08:42.280Z,100
2023-05-14T23:10:02.402Z,100
2023-05-14T23:11:23.493Z,100
2023-05-14T23:12:44.602Z,100
2023-05-14T23:14:05.719Z,100
2023-05-14T23:15:26.824Z,100
2023-05-14T23:16:47.937Z,100
2023-05-14T23:18:09.044Z,100
2023-05-14T23:19:30.151Z,100
2023-05-14T23:20:51.255Z,100
2023-05-14T23:22:12.353Z,100
2023-05-14T23:23:33.465Z,100
2023-05-14T23:24:54.572Z,100